Allison, North Carolina
Current Conditions -  °F | °C
As of 11:53 AM on Saturday 25 Oct 2014 (Local Time) from KDAN Reporting Station
Clear Clear  
Wind Chill: 65°   Ceiling: Unl
Heat Index: 65°   Visibility: 10mi
Dew Point: 40°   Wind: 3mph
Humidity: 40%   Direction: NA
Pressure: 30.02"   Gusts: NA
Location:  36.4355°N, 79.5464°W
Report Text: KDAN 251553Z AUTO VRB03KT 10SM CLR 18/04 A3002 RMK AO2 SLP158 T01830044
Loading
Personal Weather Stations






























Interactive Weather Map
Tropical Storm Tracking
New forecast layout! Learn more

10-Day Weather Forecast

Advertisements
Track Severe Weather on mobile